sensor_id;sensor_type;location;lat;lon;timestamp;P1;durP1;ratioP1;P2;durP2;ratioP2
19006;SDS011;9636;47.382;8.480;2023-06-04T00:00:41;4.80;;;4.40;;
19006;SDS011;9636;47.382;8.480;2023-06-04T00:03:08;4.83;;;4.43;;
19006;SDS011;9636;47.382;8.480;2023-06-04T00:05:35;4.88;;;4.38;;
19006;SDS011;9636;47.382;8.480;2023-06-04T00:08:01;4.70;;;4.30;;
19006;SDS011;9636;47.382;8.480;2023-06-04T00:10:30;4.57;;;4.17;;
19006;SDS011;9636;47.382;8.480;2023-06-04T00:12:58;5.00;;;4.60;;
19006;SDS011;9636;47.382;8.480;2023-06-04T00:15:28;4.80;;;4.40;;
19006;SDS011;9636;47.382;8.480;2023-06-04T00:18:30;4.80;;;4.40;;
19006;SDS011;9636;47.382;8.480;2023-06-04T00:20:57;4.85;;;4.45;;
19006;SDS011;9636;47.382;8.480;2023-06-04T00:23:24;4.57;;;4.18;;
19006;SDS011;9636;47.382;8.480;2023-06-04T00:25:52;4.75;;;4.35;;
19006;SDS011;9636;47.382;8.480;2023-06-04T00:28:19;4.65;;;4.25;;
19006;SDS011;9636;47.382;8.480;2023-06-04T00:30:46;4.82;;;4.43;;
19006;SDS011;9636;47.382;8.480;2023-06-04T00:33:12;4.60;;;4.20;;
19006;SDS011;9636;47.382;8.480;2023-06-04T00:35:39;4.70;;;4.30;;
19006;SDS011;9636;47.382;8.480;2023-06-04T00:38:06;4.93;;;4.53;;
19006;SDS011;9636;47.382;8.480;2023-06-04T00:40:33;4.60;;;4.20;;
19006;SDS011;9636;47.382;8.480;2023-06-04T00:43:01;4.68;;;4.28;;
19006;SDS011;9636;47.382;8.480;2023-06-04T00:45:28;4.68;;;4.25;;
19006;SDS011;9636;47.382;8.480;2023-06-04T00:47:56;4.50;;;4.10;;
19006;SDS011;9636;47.382;8.480;2023-06-04T00:50:23;4.77;;;4.37;;
19006;SDS011;9636;47.382;8.480;2023-06-04T00:52:50;4.63;;;4.22;;
19006;SDS011;9636;47.382;8.480;2023-06-04T00:55:18;4.60;;;4.20;;
19006;SDS011;9636;47.382;8.480;2023-06-04T00:57:45;4.78;;;4.38;;
19006;SDS011;9636;47.382;8.480;2023-06-04T01:00:13;4.18;;;3.88;;
19006;SDS011;9636;47.382;8.480;2023-06-04T01:02:40;4.75;;;4.35;;
19006;SDS011;9636;47.382;8.480;2023-06-04T01:05:11;4.63;;;4.22;;
19006;SDS011;9636;47.382;8.480;2023-06-04T01:07:44;4.78;;;4.38;;
19006;SDS011;9636;47.382;8.480;2023-06-04T01:10:12;4.57;;;4.17;;
19006;SDS011;9636;47.382;8.480;2023-06-04T01:12:40;4.68;;;4.28;;
19006;SDS011;9636;47.382;8.480;2023-06-04T01:15:07;4.53;;;4.13;;
19006;SDS011;9636;47.382;8.480;2023-06-04T01:17:37;4.40;;;4.00;;
19006;SDS011;9636;47.382;8.480;2023-06-04T01:20:12;4.60;;;4.20;;
19006;SDS011;9636;47.382;8.480;2023-06-04T01:22:48;4.78;;;4.38;;
19006;SDS011;9636;47.382;8.480;2023-06-04T01:25:25;4.60;;;4.20;;
19006;SDS011;9636;47.382;8.480;2023-06-04T01:27:58;4.72;;;4.32;;
19006;SDS011;9636;47.382;8.480;2023-06-04T01:30:26;4.55;;;4.15;;
19006;SDS011;9636;47.382;8.480;2023-06-04T01:32:57;4.53;;;4.13;;
19006;SDS011;9636;47.382;8.480;2023-06-04T01:35:25;4.82;;;4.32;;
19006;SDS011;9636;47.382;8.480;2023-06-04T01:37:52;4.50;;;4.10;;
19006;SDS011;9636;47.382;8.480;2023-06-04T01:40:19;4.50;;;4.10;;
19006;SDS011;9636;47.382;8.480;2023-06-04T01:42:46;4.50;;;4.10;;
19006;SDS011;9636;47.382;8.480;2023-06-04T01:45:13;4.53;;;4.03;;
19006;SDS011;9636;47.382;8.480;2023-06-04T01:47:40;4.70;;;4.30;;
19006;SDS011;9636;47.382;8.480;2023-06-04T01:50:09;4.78;;;4.30;;
19006;SDS011;9636;47.382;8.480;2023-06-04T01:52:38;4.60;;;4.20;;
19006;SDS011;9636;47.382;8.480;2023-06-04T01:55:06;4.60;;;4.20;;
19006;SDS011;9636;47.382;8.480;2023-06-04T01:57:37;4.32;;;4.03;;
19006;SDS011;9636;47.382;8.480;2023-06-04T02:00:05;4.47;;;3.90;;
19006;SDS011;9636;47.382;8.480;2023-06-04T02:02:34;4.35;;;3.95;;
19006;SDS011;9636;47.382;8.480;2023-06-04T02:05:02;4.32;;;3.95;;
19006;SDS011;9636;47.382;8.480;2023-06-04T02:07:34;4.30;;;4.00;;
19006;SDS011;9636;47.382;8.480;2023-06-04T02:10:03;4.60;;;4.20;;
19006;SDS011;9636;47.382;8.480;2023-06-04T02:12:31;4.07;;;3.75;;
19006;SDS011;9636;47.382;8.480;2023-06-04T02:14:57;4.20;;;3.90;;
19006;SDS011;9636;47.382;8.480;2023-06-04T02:17:24;4.60;;;4.20;;
19006;SDS011;9636;47.382;8.480;2023-06-04T02:19:51;4.45;;;4.05;;
19006;SDS011;9636;47.382;8.480;2023-06-04T02:22:19;4.60;;;4.10;;
19006;SDS011;9636;47.382;8.480;2023-06-04T02:24:47;4.45;;;4.05;;
19006;SDS011;9636;47.382;8.480;2023-06-04T02:27:14;4.22;;;3.90;;
19006;SDS011;9636;47.382;8.480;2023-06-04T02:29:41;4.40;;;4.00;;
19006;SDS011;9636;47.382;8.480;2023-06-04T02:32:08;4.53;;;4.13;;
19006;SDS011;9636;47.382;8.480;2023-06-04T02:34:35;4.38;;;4.03;;
19006;SDS011;9636;47.382;8.480;2023-06-04T02:37:02;4.43;;;4.03;;
19006;SDS011;9636;47.382;8.480;2023-06-04T02:39:30;4.47;;;4.07;;
19006;SDS011;9636;47.382;8.480;2023-06-04T02:41:58;4.60;;;4.20;;
19006;SDS011;9636;47.382;8.480;2023-06-04T02:44:25;4.35;;;3.95;;
19006;SDS011;9636;47.382;8.480;2023-06-04T02:46:53;4.63;;;4.22;;
19006;SDS011;9636;47.382;8.480;2023-06-04T02:49:20;4.40;;;4.00;;
19006;SDS011;9636;47.382;8.480;2023-06-04T02:51:47;4.22;;;3.83;;
19006;SDS011;9636;47.382;8.480;2023-06-04T02:54:13;4.50;;;4.10;;
19006;SDS011;9636;47.382;8.480;2023-06-04T02:56:40;4.93;;;3.97;;
19006;SDS011;9636;47.382;8.480;2023-06-04T02:59:09;4.70;;;4.30;;
19006;SDS011;9636;47.382;8.480;2023-06-04T03:01:36;4.43;;;4.03;;
19006;SDS011;9636;47.382;8.480;2023-06-04T03:04:03;4.60;;;4.20;;
19006;SDS011;9636;47.382;8.480;2023-06-04T03:06:35;4.10;;;3.80;;
19006;SDS011;9636;47.382;8.480;2023-06-04T03:09:03;4.10;;;3.80;;
19006;SDS011;9636;47.382;8.480;2023-06-04T03:11:32;4.53;;;4.13;;
19006;SDS011;9636;47.382;8.480;2023-06-04T03:13:59;4.22;;;3.83;;
19006;SDS011;9636;47.382;8.480;2023-06-04T03:16:27;4.35;;;3.95;;
19006;SDS011;9636;47.382;8.480;2023-06-04T03:18:54;4.55;;;4.15;;
19006;SDS011;9636;47.382;8.480;2023-06-04T03:21:21;4.40;;;4.00;;
19006;SDS011;9636;47.382;8.480;2023-06-04T03:23:50;4.32;;;3.92;;
19006;SDS011;9636;47.382;8.480;2023-06-04T03:26:16;4.18;;;3.88;;
19006;SDS011;9636;47.382;8.480;2023-06-04T03:28:43;4.30;;;3.90;;
19006;SDS011;9636;47.382;8.480;2023-06-04T03:31:10;3.90;;;3.60;;
19006;SDS011;9636;47.382;8.480;2023-06-04T03:33:39;4.00;;;3.70;;
19006;SDS011;9636;47.382;8.480;2023-06-04T03:36:05;4.10;;;3.80;;
19006;SDS011;9636;47.382;8.480;2023-06-04T03:38:32;4.50;;;4.10;;
19006;SDS011;9636;47.382;8.480;2023-06-04T03:40:59;4.25;;;3.85;;
19006;SDS011;9636;47.382;8.480;2023-06-04T03:43:26;4.30;;;4.00;;
19006;SDS011;9636;47.382;8.480;2023-06-04T03:45:53;4.00;;;3.70;;
19006;SDS011;9636;47.382;8.480;2023-06-04T03:48:20;4.30;;;3.90;;
19006;SDS011;9636;47.382;8.480;2023-06-04T03:50:48;4.10;;;3.80;;
19006;SDS011;9636;47.382;8.480;2023-06-04T03:53:15;4.00;;;3.70;;
19006;SDS011;9636;47.382;8.480;2023-06-04T03:55:42;4.30;;;3.90;;
19006;SDS011;9636;47.382;8.480;2023-06-04T03:58:09;4.30;;;3.90;;
19006;SDS011;9636;47.382;8.480;2023-06-04T04:00:36;4.10;;;3.80;;
19006;SDS011;9636;47.382;8.480;2023-06-04T04:03:03;4.25;;;3.88;;
19006;SDS011;9636;47.382;8.480;2023-06-04T04:05:34;4.18;;;3.78;;
19006;SDS011;9636;47.382;8.480;2023-06-04T04:08:03;4.10;;;3.80;;
19006;SDS011;9636;47.382;8.480;2023-06-04T04:10:31;4.38;;;3.97;;
19006;SDS011;9636;47.382;8.480;2023-06-04T04:12:57;4.00;;;3.70;;
19006;SDS011;9636;47.382;8.480;2023-06-04T04:15:24;4.30;;;3.90;;
19006;SDS011;9636;47.382;8.480;2023-06-04T04:17:51;3.87;;;3.57;;
19006;SDS011;9636;47.382;8.480;2023-06-04T04:20:18;4.10;;;3.70;;
19006;SDS011;9636;47.382;8.480;2023-06-04T04:22:45;4.00;;;3.70;;
19006;SDS011;9636;47.382;8.480;2023-06-04T04:25:14;4.00;;;3.70;;
19006;SDS011;9636;47.382;8.480;2023-06-04T04:27:40;4.30;;;3.90;;
19006;SDS011;9636;47.382;8.480;2023-06-04T04:30:08;4.07;;;3.78;;
19006;SDS011;9636;47.382;8.480;2023-06-04T04:32:35;4.00;;;3.70;;
19006;SDS011;9636;47.382;8.480;2023-06-04T04:35:04;4.50;;;4.10;;
19006;SDS011;9636;47.382;8.480;2023-06-04T04:37:32;4.00;;;3.70;;
19006;SDS011;9636;47.382;8.480;2023-06-04T04:40:00;4.22;;;3.83;;
19006;SDS011;9636;47.382;8.480;2023-06-04T04:42:30;4.15;;;3.80;;
19006;SDS011;9636;47.382;8.480;2023-06-04T04:44:57;4.07;;;3.77;;
19006;SDS011;9636;47.382;8.480;2023-06-04T04:47:23;4.40;;;4.00;;
19006;SDS011;9636;47.382;8.480;2023-06-04T04:49:50;3.90;;;3.60;;
19006;SDS011;9636;47.382;8.480;2023-06-04T04:52:17;4.00;;;3.70;;
19006;SDS011;9636;47.382;8.480;2023-06-04T04:54:44;4.00;;;3.70;;
19006;SDS011;9636;47.382;8.480;2023-06-04T04:57:11;4.10;;;3.80;;
19006;SDS011;9636;47.382;8.480;2023-06-04T04:59:39;4.00;;;3.70;;
19006;SDS011;9636;47.382;8.480;2023-06-04T05:02:06;3.97;;;3.67;;
19006;SDS011;9636;47.382;8.480;2023-06-04T05:04:33;3.83;;;3.50;;
19006;SDS011;9636;47.382;8.480;2023-06-04T05:07:00;3.92;;;3.63;;
19006;SDS011;9636;47.382;8.480;2023-06-04T05:09:27;3.83;;;3.50;;
19006;SDS011;9636;47.382;8.480;2023-06-04T05:11:54;4.35;;;3.95;;
19006;SDS011;9636;47.382;8.480;2023-06-04T05:14:21;4.00;;;3.70;;
19006;SDS011;9636;47.382;8.480;2023-06-04T05:16:49;4.05;;;3.75;;
19006;SDS011;9636;47.382;8.480;2023-06-04T05:19:16;4.25;;;3.85;;
19006;SDS011;9636;47.382;8.480;2023-06-04T05:21:43;4.10;;;3.70;;
19006;SDS011;9636;47.382;8.480;2023-06-04T05:24:10;4.13;;;3.75;;
19006;SDS011;9636;47.382;8.480;2023-06-04T05:26:37;4.07;;;3.70;;
19006;SDS011;9636;47.382;8.480;2023-06-04T05:29:05;4.22;;;3.83;;
19006;SDS011;9636;47.382;8.480;2023-06-04T05:31:32;3.97;;;3.67;;
19006;SDS011;9636;47.382;8.480;2023-06-04T05:34:01;3.97;;;3.67;;
19006;SDS011;9636;47.382;8.480;2023-06-04T05:36:29;4.10;;;3.80;;
19006;SDS011;9636;47.382;8.480;2023-06-04T05:38:56;3.80;;;3.50;;
19006;SDS011;9636;47.382;8.480;2023-06-04T05:41:24;3.97;;;3.67;;
19006;SDS011;9636;47.382;8.480;2023-06-04T05:43:52;3.80;;;3.50;;
19006;SDS011;9636;47.382;8.480;2023-06-04T05:46:19;4.05;;;3.75;;
19006;SDS011;9636;47.382;8.480;2023-06-04T05:48:46;4.07;;;3.78;;
19006;SDS011;9636;47.382;8.480;2023-06-04T05:51:14;4.10;;;3.80;;
19006;SDS011;9636;47.382;8.480;2023-06-04T05:53:41;4.07;;;3.67;;
19006;SDS011;9636;47.382;8.480;2023-06-04T05:56:08;3.90;;;3.60;;
19006;SDS011;9636;47.382;8.480;2023-06-04T05:58:35;3.80;;;3.50;;
19006;SDS011;9636;47.382;8.480;2023-06-04T06:01:02;3.92;;;3.63;;
19006;SDS011;9636;47.382;8.480;2023-06-04T06:03:29;3.80;;;3.50;;
19006;SDS011;9636;47.382;8.480;2023-06-04T06:05:56;3.95;;;3.65;;
19006;SDS011;9636;47.382;8.480;2023-06-04T06:08:26;4.00;;;3.70;;
19006;SDS011;9636;47.382;8.480;2023-06-04T06:10:53;3.90;;;3.60;;
19006;SDS011;9636;47.382;8.480;2023-06-04T06:13:20;4.10;;;3.80;;
19006;SDS011;9636;47.382;8.480;2023-06-04T06:15:47;3.80;;;3.50;;
19006;SDS011;9636;47.382;8.480;2023-06-04T06:18:17;4.25;;;3.85;;
19006;SDS011;9636;47.382;8.480;2023-06-04T06:20:44;3.90;;;3.60;;
19006;SDS011;9636;47.382;8.480;2023-06-04T06:23:11;3.75;;;3.45;;
19006;SDS011;9636;47.382;8.480;2023-06-04T06:25:40;3.90;;;3.60;;
19006;SDS011;9636;47.382;8.480;2023-06-04T06:28:11;3.83;;;3.53;;
19006;SDS011;9636;47.382;8.480;2023-06-04T06:30:38;3.92;;;3.63;;
19006;SDS011;9636;47.382;8.480;2023-06-04T06:33:04;3.90;;;3.60;;
19006;SDS011;9636;47.382;8.480;2023-06-04T06:35:31;3.88;;;3.58;;
19006;SDS011;9636;47.382;8.480;2023-06-04T06:37:58;4.00;;;3.70;;
19006;SDS011;9636;47.382;8.480;2023-06-04T06:40:25;4.57;;;3.90;;
19006;SDS011;9636;47.382;8.480;2023-06-04T06:42:53;4.20;;;3.83;;
19006;SDS011;9636;47.382;8.480;2023-06-04T06:45:20;4.50;;;4.10;;
19006;SDS011;9636;47.382;8.480;2023-06-04T06:47:47;4.28;;;3.88;;
19006;SDS011;9636;47.382;8.480;2023-06-04T06:50:14;4.93;;;4.15;;
19006;SDS011;9636;47.382;8.480;2023-06-04T06:52:41;4.57;;;3.90;;
19006;SDS011;9636;47.382;8.480;2023-06-04T06:55:08;4.50;;;4.10;;
19006;SDS011;9636;47.382;8.480;2023-06-04T06:57:35;4.60;;;4.20;;
19006;SDS011;9636;47.382;8.480;2023-06-04T07:00:03;4.20;;;3.80;;
19006;SDS011;9636;47.382;8.480;2023-06-04T07:02:32;4.45;;;4.15;;
19006;SDS011;9636;47.382;8.480;2023-06-04T07:04:59;4.60;;;4.20;;
19006;SDS011;9636;47.382;8.480;2023-06-04T07:07:25;5.00;;;4.03;;
19006;SDS011;9636;47.382;8.480;2023-06-04T07:09:52;10.05;;;6.72;;
19006;SDS011;9636;47.382;8.480;2023-06-04T07:12:19;10.20;;;7.13;;
19006;SDS011;9636;47.382;8.480;2023-06-04T07:14:46;10.07;;;7.07;;
19006;SDS011;9636;47.382;8.480;2023-06-04T07:17:14;9.18;;;6.70;;
19006;SDS011;9636;47.382;8.480;2023-06-04T07:19:41;9.73;;;6.60;;
19006;SDS011;9636;47.382;8.480;2023-06-04T07:22:07;11.65;;;6.70;;
19006;SDS011;9636;47.382;8.480;2023-06-04T07:24:35;11.13;;;6.60;;
19006;SDS011;9636;47.382;8.480;2023-06-04T07:27:09;11.98;;;6.60;;
19006;SDS011;9636;47.382;8.480;2023-06-04T07:29:36;8.05;;;6.32;;
19006;SDS011;9636;47.382;8.480;2023-06-04T07:32:03;7.97;;;6.25;;
19006;SDS011;9636;47.382;8.480;2023-06-04T07:34:31;8.60;;;6.60;;
19006;SDS011;9636;47.382;8.480;2023-06-04T07:36:58;9.70;;;6.40;;
19006;SDS011;9636;47.382;8.480;2023-06-04T07:39:26;11.68;;;6.50;;
19006;SDS011;9636;47.382;8.480;2023-06-04T07:41:52;8.68;;;6.00;;
19006;SDS011;9636;47.382;8.480;2023-06-04T07:44:19;6.93;;;6.15;;
19006;SDS011;9636;47.382;8.480;2023-06-04T07:46:46;6.70;;;5.88;;
19006;SDS011;9636;47.382;8.480;2023-06-04T07:49:13;6.63;;;5.77;;
19006;SDS011;9636;47.382;8.480;2023-06-04T07:51:41;9.52;;;6.13;;
19006;SDS011;9636;47.382;8.480;2023-06-04T07:54:08;8.02;;;5.93;;
19006;SDS011;9636;47.382;8.480;2023-06-04T07:56:35;6.85;;;5.75;;
19006;SDS011;9636;47.382;8.480;2023-06-04T07:59:02;7.13;;;5.90;;
19006;SDS011;9636;47.382;8.480;2023-06-04T08:01:28;8.27;;;6.10;;
19006;SDS011;9636;47.382;8.480;2023-06-04T08:03:55;6.38;;;5.72;;
19006;SDS011;9636;47.382;8.480;2023-06-04T08:06:23;8.10;;;6.15;;
19006;SDS011;9636;47.382;8.480;2023-06-04T08:08:53;6.50;;;5.57;;
19006;SDS011;9636;47.382;8.480;2023-06-04T08:11:19;6.50;;;5.73;;
19006;SDS011;9636;47.382;8.480;2023-06-04T08:13:47;6.38;;;5.65;;
19006;SDS011;9636;47.382;8.480;2023-06-04T08:16:14;6.15;;;5.55;;
19006;SDS011;9636;47.382;8.480;2023-06-04T08:18:41;6.03;;;5.43;;
19006;SDS011;9636;47.382;8.480;2023-06-04T08:21:08;5.90;;;5.30;;
19006;SDS011;9636;47.382;8.480;2023-06-04T08:23:36;6.57;;;5.57;;
19006;SDS011;9636;47.382;8.480;2023-06-04T08:26:05;6.35;;;5.60;;
19006;SDS011;9636;47.382;8.480;2023-06-04T08:28:32;6.03;;;5.43;;
19006;SDS011;9636;47.382;8.480;2023-06-04T08:30:59;6.53;;;5.18;;
19006;SDS011;9636;47.382;8.480;2023-06-04T08:33:26;5.60;;;5.10;;
19006;SDS011;9636;47.382;8.480;2023-06-04T08:35:53;6.10;;;5.30;;
19006;SDS011;9636;47.382;8.480;2023-06-04T08:38:20;5.85;;;5.20;;
19006;SDS011;9636;47.382;8.480;2023-06-04T08:40:47;5.87;;;5.27;;
19006;SDS011;9636;47.382;8.480;2023-06-04T08:43:20;6.03;;;5.43;;
19006;SDS011;9636;47.382;8.480;2023-06-04T08:45:49;5.43;;;5.03;;
19006;SDS011;9636;47.382;8.480;2023-06-04T08:48:16;6.10;;;5.15;;
19006;SDS011;9636;47.382;8.480;2023-06-04T08:50:47;5.75;;;5.18;;
19006;SDS011;9636;47.382;8.480;2023-06-04T08:53:15;6.10;;;5.40;;
19006;SDS011;9636;47.382;8.480;2023-06-04T08:55:42;5.57;;;4.97;;
19006;SDS011;9636;47.382;8.480;2023-06-04T08:58:09;5.30;;;4.80;;
19006;SDS011;9636;47.382;8.480;2023-06-04T09:00:39;5.63;;;5.10;;
19006;SDS011;9636;47.382;8.480;2023-06-04T09:03:06;5.57;;;5.07;;
19006;SDS011;9636;47.382;8.480;2023-06-04T09:05:33;5.65;;;5.13;;
19006;SDS011;9636;47.382;8.480;2023-06-04T09:08:02;6.13;;;5.10;;
19006;SDS011;9636;47.382;8.480;2023-06-04T09:10:33;5.55;;;5.05;;
19006;SDS011;9636;47.382;8.480;2023-06-04T09:13:03;5.78;;;5.20;;
19006;SDS011;9636;47.382;8.480;2023-06-04T09:15:32;5.45;;;4.95;;
19006;SDS011;9636;47.382;8.480;2023-06-04T09:18:00;5.53;;;5.03;;
19006;SDS011;9636;47.382;8.480;2023-06-04T09:20:27;5.38;;;4.88;;
19006;SDS011;9636;47.382;8.480;2023-06-04T09:22:54;5.57;;;5.00;;
19006;SDS011;9636;47.382;8.480;2023-06-04T09:25:21;5.70;;;5.10;;
19006;SDS011;9636;47.382;8.480;2023-06-04T09:27:50;5.38;;;4.88;;
19006;SDS011;9636;47.382;8.480;2023-06-04T09:30:17;5.90;;;5.30;;
19006;SDS011;9636;47.382;8.480;2023-06-04T09:32:44;7.18;;;5.80;;
19006;SDS011;9636;47.382;8.480;2023-06-04T09:35:13;9.13;;;6.80;;
19006;SDS011;9636;47.382;8.480;2023-06-04T09:37:41;15.40;;;7.55;;
19006;SDS011;9636;47.382;8.480;2023-06-04T09:40:08;13.55;;;7.63;;
19006;SDS011;9636;47.382;8.480;2023-06-04T09:42:42;11.00;;;8.00;;
19006;SDS011;9636;47.382;8.480;2023-06-04T09:45:09;10.50;;;7.47;;
19006;SDS011;9636;47.382;8.480;2023-06-04T09:47:40;13.10;;;7.20;;
19006;SDS011;9636;47.382;8.480;2023-06-04T09:50:08;10.27;;;7.35;;
19006;SDS011;9636;47.382;8.480;2023-06-04T09:52:36;10.15;;;7.10;;
19006;SDS011;9636;47.382;8.480;2023-06-04T09:55:14;10.30;;;7.28;;
19006;SDS011;9636;47.382;8.480;2023-06-04T09:57:44;9.60;;;7.15;;
19006;SDS011;9636;47.382;8.480;2023-06-04T10:00:12;9.68;;;7.20;;
19006;SDS011;9636;47.382;8.480;2023-06-04T10:02:42;8.70;;;7.20;;
19006;SDS011;9636;47.382;8.480;2023-06-04T10:05:11;8.70;;;7.30;;
19006;SDS011;9636;47.382;8.480;2023-06-04T10:07:40;8.13;;;6.82;;
19006;SDS011;9636;47.382;8.480;2023-06-04T10:10:09;10.43;;;7.20;;
19006;SDS011;9636;47.382;8.480;2023-06-04T10:12:37;9.75;;;7.07;;
19006;SDS011;9636;47.382;8.480;2023-06-04T10:15:05;9.32;;;7.28;;
19006;SDS011;9636;47.382;8.480;2023-06-04T10:17:37;8.82;;;7.30;;
19006;SDS011;9636;47.382;8.480;2023-06-04T10:20:04;7.97;;;7.17;;
19006;SDS011;9636;47.382;8.480;2023-06-04T10:22:33;8.55;;;7.07;;
19006;SDS011;9636;47.382;8.480;2023-06-04T10:25:02;8.27;;;7.30;;
19006;SDS011;9636;47.382;8.480;2023-06-04T10:27:30;8.68;;;7.28;;
19006;SDS011;9636;47.382;8.480;2023-06-04T10:29:57;8.43;;;6.93;;
19006;SDS011;9636;47.382;8.480;2023-06-04T10:32:26;7.45;;;6.70;;
19006;SDS011;9636;47.382;8.480;2023-06-04T10:34:53;7.82;;;7.10;;
19006;SDS011;9636;47.382;8.480;2023-06-04T10:37:22;8.15;;;7.30;;
19006;SDS011;9636;47.382;8.480;2023-06-04T10:39:51;7.50;;;6.78;;
19006;SDS011;9636;47.382;8.480;2023-06-04T10:42:22;8.15;;;7.10;;
19006;SDS011;9636;47.382;8.480;2023-06-04T10:44:50;8.07;;;6.63;;
19006;SDS011;9636;47.382;8.480;2023-06-04T10:47:19;8.32;;;6.40;;
19006;SDS011;9636;47.382;8.480;2023-06-04T10:49:47;7.97;;;6.68;;
19006;SDS011;9636;47.382;8.480;2023-06-04T10:52:15;9.37;;;7.73;;
19006;SDS011;9636;47.382;8.480;2023-06-04T10:54:42;8.57;;;7.32;;
19006;SDS011;9636;47.382;8.480;2023-06-04T10:57:11;10.50;;;8.07;;
19006;SDS011;9636;47.382;8.480;2023-06-04T10:59:40;11.02;;;7.95;;
19006;SDS011;9636;47.382;8.480;2023-06-04T11:02:07;10.97;;;8.10;;
19006;SDS011;9636;47.382;8.480;2023-06-04T11:04:35;8.73;;;7.82;;
19006;SDS011;9636;47.382;8.480;2023-06-04T11:07:03;9.80;;;8.05;;
19006;SDS011;9636;47.382;8.480;2023-06-04T11:09:34;10.90;;;8.20;;
19006;SDS011;9636;47.382;8.480;2023-06-04T11:12:02;10.95;;;8.32;;
19006;SDS011;9636;47.382;8.480;2023-06-04T11:14:30;9.15;;;8.02;;
19006;SDS011;9636;47.382;8.480;2023-06-04T11:17:08;10.02;;;8.13;;
19006;SDS011;9636;47.382;8.480;2023-06-04T11:19:35;9.90;;;8.02;;
19006;SDS011;9636;47.382;8.480;2023-06-04T11:22:02;10.52;;;8.02;;
19006;SDS011;9636;47.382;8.480;2023-06-04T11:24:30;10.63;;;7.90;;
19006;SDS011;9636;47.382;8.480;2023-06-04T11:26:58;10.10;;;8.10;;
19006;SDS011;9636;47.382;8.480;2023-06-04T11:29:25;8.98;;;7.38;;
19006;SDS011;9636;47.382;8.480;2023-06-04T11:31:52;10.35;;;7.63;;
19006;SDS011;9636;47.382;8.480;2023-06-04T11:34:24;8.40;;;7.60;;
19006;SDS011;9636;47.382;8.480;2023-06-04T11:36:51;9.52;;;7.80;;
19006;SDS011;9636;47.382;8.480;2023-06-04T11:39:19;10.20;;;7.57;;
19006;SDS011;9636;47.382;8.480;2023-06-04T11:41:46;8.00;;;7.00;;
19006;SDS011;9636;47.382;8.480;2023-06-04T11:44:14;9.43;;;7.05;;
19006;SDS011;9636;47.382;8.480;2023-06-04T11:46:45;7.43;;;6.68;;
19006;SDS011;9636;47.382;8.480;2023-06-04T11:49:14;7.97;;;6.60;;
19006;SDS011;9636;47.382;8.480;2023-06-04T11:51:46;7.65;;;6.80;;
19006;SDS011;9636;47.382;8.480;2023-06-04T11:54:13;8.98;;;6.75;;
19006;SDS011;9636;47.382;8.480;2023-06-04T11:56:41;7.57;;;6.78;;
19006;SDS011;9636;47.382;8.480;2023-06-04T11:59:13;8.10;;;6.80;;
19006;SDS011;9636;47.382;8.480;2023-06-04T12:01:41;7.47;;;6.47;;
19006;SDS011;9636;47.382;8.480;2023-06-04T12:04:12;8.55;;;6.68;;
19006;SDS011;9636;47.382;8.480;2023-06-04T12:06:49;8.27;;;6.90;;
19006;SDS011;9636;47.382;8.480;2023-06-04T12:09:20;10.15;;;7.07;;
19006;SDS011;9636;47.382;8.480;2023-06-04T12:11:47;7.32;;;6.50;;
19006;SDS011;9636;47.382;8.480;2023-06-04T12:14:15;9.80;;;6.87;;
19006;SDS011;9636;47.382;8.480;2023-06-04T12:16:43;10.87;;;6.43;;
19006;SDS011;9636;47.382;8.480;2023-06-04T12:19:20;7.25;;;6.28;;
19006;SDS011;9636;47.382;8.480;2023-06-04T12:21:47;8.10;;;6.63;;
19006;SDS011;9636;47.382;8.480;2023-06-04T12:24:26;8.60;;;6.32;;
19006;SDS011;9636;47.382;8.480;2023-06-04T12:27:00;7.90;;;6.05;;
19006;SDS011;9636;47.382;8.480;2023-06-04T12:29:28;7.55;;;6.30;;
19006;SDS011;9636;47.382;8.480;2023-06-04T12:32:01;7.90;;;6.25;;
19006;SDS011;9636;47.382;8.480;2023-06-04T12:34:29;7.88;;;6.32;;
19006;SDS011;9636;47.382;8.480;2023-06-04T12:36:56;7.75;;;6.32;;
19006;SDS011;9636;47.382;8.480;2023-06-04T12:39:23;6.88;;;6.13;;
19006;SDS011;9636;47.382;8.480;2023-06-04T12:41:51;7.70;;;6.20;;
19006;SDS011;9636;47.382;8.480;2023-06-04T12:44:18;7.75;;;6.20;;
19006;SDS011;9636;47.382;8.480;2023-06-04T12:46:45;7.38;;;5.93;;
19006;SDS011;9636;47.382;8.480;2023-06-04T12:49:13;7.68;;;6.10;;
19006;SDS011;9636;47.382;8.480;2023-06-04T12:51:40;6.80;;;5.70;;
19006;SDS011;9636;47.382;8.480;2023-06-04T12:54:06;8.05;;;5.80;;
19006;SDS011;9636;47.382;8.480;2023-06-04T12:56:33;7.40;;;5.97;;
19006;SDS011;9636;47.382;8.480;2023-06-04T12:59:01;8.57;;;6.00;;
19006;SDS011;9636;47.382;8.480;2023-06-04T13:01:28;8.40;;;6.40;;
19006;SDS011;9636;47.382;8.480;2023-06-04T13:03:55;6.53;;;5.82;;
19006;SDS011;9636;47.382;8.480;2023-06-04T13:06:22;7.18;;;5.93;;
19006;SDS011;9636;47.382;8.480;2023-06-04T13:08:49;8.82;;;5.95;;
19006;SDS011;9636;47.382;8.480;2023-06-04T13:11:16;6.75;;;6.00;;
19006;SDS011;9636;47.382;8.480;2023-06-04T13:13:42;8.32;;;5.90;;
19006;SDS011;9636;47.382;8.480;2023-06-04T13:16:11;7.63;;;5.70;;
19006;SDS011;9636;47.382;8.480;2023-06-04T13:18:37;8.45;;;6.30;;
19006;SDS011;9636;47.382;8.480;2023-06-04T13:21:04;7.63;;;6.05;;
19006;SDS011;9636;47.382;8.480;2023-06-04T13:23:31;7.72;;;6.10;;
19006;SDS011;9636;47.382;8.480;2023-06-04T13:25:58;7.47;;;6.10;;
19006;SDS011;9636;47.382;8.480;2023-06-04T13:28:25;6.72;;;6.03;;
19006;SDS011;9636;47.382;8.480;2023-06-04T13:30:52;7.82;;;6.05;;
19006;SDS011;9636;47.382;8.480;2023-06-04T13:33:20;7.63;;;6.30;;
19006;SDS011;9636;47.382;8.480;2023-06-04T13:35:47;7.70;;;5.75;;
19006;SDS011;9636;47.382;8.480;2023-06-04T13:38:15;6.50;;;5.90;;
19006;SDS011;9636;47.382;8.480;2023-06-04T13:40:42;6.93;;;6.20;;
19006;SDS011;9636;47.382;8.480;2023-06-04T13:43:09;7.80;;;5.90;;
19006;SDS011;9636;47.382;8.480;2023-06-04T13:45:36;8.18;;;6.20;;
19006;SDS011;9636;47.382;8.480;2023-06-04T13:48:05;8.77;;;6.28;;
19006;SDS011;9636;47.382;8.480;2023-06-04T13:50:34;6.63;;;5.93;;
19006;SDS011;9636;47.382;8.480;2023-06-04T13:53:01;7.15;;;6.40;;
19006;SDS011;9636;47.382;8.480;2023-06-04T13:55:27;7.63;;;6.18;;
19006;SDS011;9636;47.382;8.480;2023-06-04T13:57:55;9.05;;;6.93;;
19006;SDS011;9636;47.382;8.480;2023-06-04T14:00:22;9.77;;;7.97;;
19006;SDS011;9636;47.382;8.480;2023-06-04T14:02:49;7.57;;;6.63;;
19006;SDS011;9636;47.382;8.480;2023-06-04T14:05:15;7.18;;;6.47;;
19006;SDS011;9636;47.382;8.480;2023-06-04T14:07:44;8.27;;;6.22;;
19006;SDS011;9636;47.382;8.480;2023-06-04T14:10:11;6.95;;;6.25;;
19006;SDS011;9636;47.382;8.480;2023-06-04T14:12:38;6.80;;;6.10;;
19006;SDS011;9636;47.382;8.480;2023-06-04T14:15:06;6.65;;;5.95;;
19006;SDS011;9636;47.382;8.480;2023-06-04T14:17:34;8.02;;;6.18;;
19006;SDS011;9636;47.382;8.480;2023-06-04T14:20:01;7.35;;;6.18;;
19006;SDS011;9636;47.382;8.480;2023-06-04T14:22:32;6.67;;;6.00;;
19006;SDS011;9636;47.382;8.480;2023-06-04T14:25:01;7.75;;;6.22;;
19006;SDS011;9636;47.382;8.480;2023-06-04T14:27:28;7.10;;;6.07;;
19006;SDS011;9636;47.382;8.480;2023-06-04T14:29:55;7.78;;;6.10;;
19006;SDS011;9636;47.382;8.480;2023-06-04T14:32:22;7.32;;;6.22;;
19006;SDS011;9636;47.382;8.480;2023-06-04T14:34:49;8.63;;;6.43;;
19006;SDS011;9636;47.382;8.480;2023-06-04T14:37:16;9.45;;;6.38;;
19006;SDS011;9636;47.382;8.480;2023-06-04T14:39:44;7.05;;;6.20;;
19006;SDS011;9636;47.382;8.480;2023-06-04T14:42:12;8.30;;;6.05;;
19006;SDS011;9636;47.382;8.480;2023-06-04T14:44:40;6.97;;;6.25;;
19006;SDS011;9636;47.382;8.480;2023-06-04T14:47:06;8.45;;;6.13;;
19006;SDS011;9636;47.382;8.480;2023-06-04T14:49:33;8.27;;;6.40;;
19006;SDS011;9636;47.382;8.480;2023-06-04T14:52:01;7.80;;;6.30;;
19006;SDS011;9636;47.382;8.480;2023-06-04T14:54:28;8.75;;;6.30;;
19006;SDS011;9636;47.382;8.480;2023-06-04T14:56:55;7.55;;;6.28;;
19006;SDS011;9636;47.382;8.480;2023-06-04T14:59:25;9.50;;;6.25;;
19006;SDS011;9636;47.382;8.480;2023-06-04T15:01:53;7.95;;;6.10;;
19006;SDS011;9636;47.382;8.480;2023-06-04T15:04:20;7.07;;;6.15;;